sensor_id;sensor_type;location;lat;lon;timestamp;pressure;altitude;pressure_sealevel;temperature;humidity
78839;BME280;68405;47.190;27.558;2023-05-10T00:01:53;100496.79;;;7.66;65.55
78839;BME280;68405;47.190;27.558;2023-05-10T00:04:22;100493.01;;;7.64;66.23
78839;BME280;68405;47.190;27.558;2023-05-10T00:06:55;100491.98;;;7.64;66.30
78839;BME280;68405;47.190;27.558;2023-05-10T00:09:24;100490.61;;;7.63;65.84
78839;BME280;68405;47.190;27.558;2023-05-10T00:11:53;100485.96;;;7.61;65.62
78839;BME280;68405;47.190;27.558;2023-05-10T00:14:22;100481.48;;;7.59;65.73
78839;BME280;68405;47.190;27.558;2023-05-10T00:16:50;100483.39;;;7.58;65.47
78839;BME280;68405;47.190;27.558;2023-05-10T00:19:19;100483.41;;;7.57;65.58
78839;BME280;68405;47.190;27.558;2023-05-10T00:21:48;100482.57;;;7.56;65.62
78839;BME280;68405;47.190;27.558;2023-05-10T00:24:17;100477.58;;;7.54;65.34
78839;BME280;68405;47.190;27.558;2023-05-10T00:26:46;100476.90;;;7.52;65.46
78839;BME280;68405;47.190;27.558;2023-05-10T00:29:15;100476.41;;;7.51;65.53
78839;BME280;68405;47.190;27.558;2023-05-10T00:31:43;100482.47;;;7.49;65.47
78839;BME280;68405;47.190;27.558;2023-05-10T00:34:12;100481.63;;;7.47;66.67
78839;BME280;68405;47.190;27.558;2023-05-10T00:36:41;100486.51;;;7.45;67.04
78839;BME280;68405;47.190;27.558;2023-05-10T00:39:09;100485.15;;;7.41;66.98
78839;BME280;68405;47.190;27.558;2023-05-10T00:41:39;100484.99;;;7.40;66.80
78839;BME280;68405;47.190;27.558;2023-05-10T00:44:08;100488.50;;;7.36;67.31
78839;BME280;68405;47.190;27.558;2023-05-10T00:46:37;100486.27;;;7.34;68.18
78839;BME280;68405;47.190;27.558;2023-05-10T00:49:06;100487.67;;;7.32;68.48
78839;BME280;68405;47.190;27.558;2023-05-10T00:51:35;100490.12;;;7.31;67.60
78839;BME280;68405;47.190;27.558;2023-05-10T00:54:04;100489.13;;;7.28;67.88
78839;BME280;68405;47.190;27.558;2023-05-10T00:56:34;100489.14;;;7.25;67.38
78839;BME280;68405;47.190;27.558;2023-05-10T00:59:03;100485.88;;;7.23;67.40
78839;BME280;68405;47.190;27.558;2023-05-10T01:01:32;100487.11;;;7.21;67.42
78839;BME280;68405;47.190;27.558;2023-05-10T01:04:01;100483.68;;;7.19;67.72
78839;BME280;68405;47.190;27.558;2023-05-10T01:06:30;100483.34;;;7.18;67.71
78839;BME280;68405;47.190;27.558;2023-05-10T01:09:00;100483.88;;;7.17;67.28
78839;BME280;68405;47.190;27.558;2023-05-10T01:11:29;100482.84;;;7.17;67.53
78839;BME280;68405;47.190;27.558;2023-05-10T01:13:59;100478.72;;;7.15;67.34
78839;BME280;68405;47.190;27.558;2023-05-10T01:16:31;100477.70;;;7.14;67.30
78839;BME280;68405;47.190;27.558;2023-05-10T01:19:01;100477.01;;;7.12;67.34
78839;BME280;68405;47.190;27.558;2023-05-10T01:21:36;100476.17;;;7.11;67.71
78839;BME280;68405;47.190;27.558;2023-05-10T01:27:51;100471.38;;;7.07;67.67
78839;BME280;68405;47.190;27.558;2023-05-10T01:30:46;100469.51;;;7.04;67.44
78839;BME280;68405;47.190;27.558;2023-05-10T01:33:21;100464.88;;;7.01;67.47
78839;BME280;68405;47.190;27.558;2023-05-10T01:35:58;100466.45;;;6.99;67.59
78839;BME280;68405;47.190;27.558;2023-05-10T01:38:36;100463.90;;;6.95;67.60
78839;BME280;68405;47.190;27.558;2023-05-10T01:41:14;100459.95;;;6.92;67.36
78839;BME280;68405;47.190;27.558;2023-05-10T01:43:52;100458.96;;;6.88;67.61
78839;BME280;68405;47.190;27.558;2023-05-10T01:46:27;100460.90;;;6.84;67.63
78839;BME280;68405;47.190;27.558;2023-05-10T01:48:58;100456.63;;;6.78;67.59
78839;BME280;68405;47.190;27.558;2023-05-10T01:51:35;100454.27;;;6.73;67.38
78839;BME280;68405;47.190;27.558;2023-05-10T01:54:09;100455.87;;;6.68;67.62
78839;BME280;68405;47.190;27.558;2023-05-10T01:56:40;100453.34;;;6.62;67.44
78839;BME280;68405;47.190;27.558;2023-05-10T01:59:15;100456.81;;;6.57;67.78
78839;BME280;68405;47.190;27.558;2023-05-10T02:01:45;100456.52;;;6.52;67.80
78839;BME280;68405;47.190;27.558;2023-05-10T02:04:17;100456.73;;;6.47;67.66
78839;BME280;68405;47.190;27.558;2023-05-10T02:06:48;100455.40;;;6.42;67.92
78839;BME280;68405;47.190;27.558;2023-05-10T02:09:19;100451.14;;;6.37;67.90
78839;BME280;68405;47.190;27.558;2023-05-10T02:11:48;100450.31;;;6.32;67.95
78839;BME280;68405;47.190;27.558;2023-05-10T02:14:19;100451.39;;;6.26;67.74
78839;BME280;68405;47.190;27.558;2023-05-10T02:16:48;100447.29;;;6.21;67.76
78839;BME280;68405;47.190;27.558;2023-05-10T02:19:19;100446.98;;;6.14;67.96
78839;BME280;68405;47.190;27.558;2023-05-10T02:21:50;100452.20;;;6.09;68.03
78839;BME280;68405;47.190;27.558;2023-05-10T02:24:20;100448.27;;;6.03;68.26
78839;BME280;68405;47.190;27.558;2023-05-10T02:26:50;100445.70;;;5.97;67.81
78839;BME280;68405;47.190;27.558;2023-05-10T02:29:20;100443.14;;;5.91;68.02
78839;BME280;68405;47.190;27.558;2023-05-10T03:01:59;100446.77;;;5.57;69.27
78839;BME280;68405;47.190;27.558;2023-05-10T03:04:28;100451.26;;;5.58;69.02
78839;BME280;68405;47.190;27.558;2023-05-10T03:06:57;100452.29;;;5.58;68.82
78839;BME280;68405;47.190;27.558;2023-05-10T03:09:26;100456.08;;;5.61;68.94
78839;BME280;68405;47.190;27.558;2023-05-10T03:12:00;100457.26;;;5.63;69.09
78839;BME280;68405;47.190;27.558;2023-05-10T03:14:45;100455.52;;;5.66;69.31
78839;BME280;68405;47.190;27.558;2023-05-10T03:17:23;100457.73;;;5.71;69.22
78839;BME280;68405;47.190;27.558;2023-05-10T03:19:56;100460.63;;;5.76;69.33
78839;BME280;68405;47.190;27.558;2023-05-10T03:22:26;100461.48;;;5.82;69.45
78839;BME280;68405;47.190;27.558;2023-05-10T03:24:57;100461.77;;;5.88;69.95
78839;BME280;68405;47.190;27.558;2023-05-10T03:27:27;100462.08;;;5.96;69.35
78839;BME280;68405;47.190;27.558;2023-05-10T03:29:57;100462.15;;;6.16;69.50
78839;BME280;68405;47.190;27.558;2023-05-10T03:32:26;100461.70;;;6.30;69.34
78839;BME280;68405;47.190;27.558;2023-05-10T03:34:58;100462.51;;;6.38;69.59
78839;BME280;68405;47.190;27.558;2023-05-10T03:37:26;100460.02;;;6.47;69.26
78839;BME280;68405;47.190;27.558;2023-05-10T03:39:55;100458.73;;;6.56;69.35
78839;BME280;68405;47.190;27.558;2023-05-10T03:42:24;100458.98;;;6.66;69.20
78839;BME280;68405;47.190;27.558;2023-05-10T03:44:53;100464.29;;;6.90;69.12
78839;BME280;68405;47.190;27.558;2023-05-10T03:47:22;100463.57;;;7.54;68.92
78839;BME280;68405;47.190;27.558;2023-05-10T03:49:51;100461.66;;;8.29;68.37
78839;BME280;68405;47.190;27.558;2023-05-10T03:52:20;100458.21;;;8.81;67.44
78839;BME280;68405;47.190;27.558;2023-05-10T03:54:49;100461.29;;;8.94;67.32
78839;BME280;68405;47.190;27.558;2023-05-10T03:57:18;100462.03;;;9.44;66.80
78839;BME280;68405;47.190;27.558;2023-05-10T03:59:47;100462.23;;;10.52;64.67
78839;BME280;68405;47.190;27.558;2023-05-10T04:02:16;100465.23;;;10.92;63.78
78839;BME280;68405;47.190;27.558;2023-05-10T04:04:45;100462.65;;;11.36;63.11
78839;BME280;68405;47.190;27.558;2023-05-10T04:07:14;100468.12;;;11.87;62.12
78839;BME280;68405;47.190;27.558;2023-05-10T04:09:43;100466.85;;;13.40;57.31
78839;BME280;68405;47.190;27.558;2023-05-10T04:12:12;100467.02;;;15.35;54.65
78839;BME280;68405;47.190;27.558;2023-05-10T04:14:41;100466.29;;;17.54;49.62
78839;BME280;68405;47.190;27.558;2023-05-10T04:17:10;100471.20;;;19.73;45.20
78839;BME280;68405;47.190;27.558;2023-05-10T04:19:39;100469.66;;;21.66;41.38
78839;BME280;68405;47.190;27.558;2023-05-10T04:22:08;100473.20;;;23.39;37.59
78839;BME280;68405;47.190;27.558;2023-05-10T04:24:38;100473.08;;;25.02;36.04
78839;BME280;68405;47.190;27.558;2023-05-10T04:27:09;100475.70;;;26.52;33.16
78839;BME280;68405;47.190;27.558;2023-05-10T04:29:39;100478.74;;;27.90;30.63
78839;BME280;68405;47.190;27.558;2023-05-10T04:32:08;100477.57;;;28.56;31.77
78839;BME280;68405;47.190;27.558;2023-05-10T04:34:38;100485.48;;;27.81;31.73
78839;BME280;68405;47.190;27.558;2023-05-10T04:37:07;100488.26;;;27.24;33.21
78839;BME280;68405;47.190;27.558;2023-05-10T04:39:36;100484.09;;;26.30;34.84
78839;BME280;68405;47.190;27.558;2023-05-10T04:42:05;100481.53;;;25.69;37.71
78839;BME280;68405;47.190;27.558;2023-05-10T04:44:34;100482.69;;;25.00;37.84
78839;BME280;68405;47.190;27.558;2023-05-10T04:47:03;100486.11;;;24.44;40.78
78839;BME280;68405;47.190;27.558;2023-05-10T04:49:32;100487.12;;;23.90;40.83
78839;BME280;68405;47.190;27.558;2023-05-10T04:52:01;100483.69;;;23.23;38.51
78839;BME280;68405;47.190;27.558;2023-05-10T04:54:30;100487.93;;;22.60;41.02
78839;BME280;68405;47.190;27.558;2023-05-10T04:57:00;100488.08;;;21.85;41.65
78839;BME280;68405;47.190;27.558;2023-05-10T04:59:29;100490.39;;;21.42;42.90
78839;BME280;68405;47.190;27.558;2023-05-10T05:01:58;100489.98;;;21.25;42.31
78839;BME280;68405;47.190;27.558;2023-05-10T05:04:27;100484.39;;;21.19;40.56
78839;BME280;68405;47.190;27.558;2023-05-10T05:06:55;100487.77;;;21.32;40.78
78839;BME280;68405;47.190;27.558;2023-05-10T05:09:25;100483.93;;;21.36;40.79
78839;BME280;68405;47.190;27.558;2023-05-10T05:11:53;100484.60;;;21.57;40.82
78839;BME280;68405;47.190;27.558;2023-05-10T05:14:22;100488.02;;;21.64;40.62
78839;BME280;68405;47.190;27.558;2023-05-10T05:16:55;100484.00;;;21.53;38.41
78839;BME280;68405;47.190;27.558;2023-05-10T05:19:24;100480.75;;;21.77;40.16
78839;BME280;68405;47.190;27.558;2023-05-10T05:21:53;100485.98;;;22.27;38.35
78839;BME280;68405;47.190;27.558;2023-05-10T05:24:22;100485.62;;;23.05;38.07
78839;BME280;68405;47.190;27.558;2023-05-10T05:26:51;100484.88;;;23.92;34.35
78839;BME280;68405;47.190;27.558;2023-05-10T05:29:20;100482.58;;;24.46;31.61
78839;BME280;68405;47.190;27.558;2023-05-10T05:31:49;100488.21;;;24.42;33.49
78839;BME280;68405;47.190;27.558;2023-05-10T05:34:18;100484.98;;;24.47;34.23
78839;BME280;68405;47.190;27.558;2023-05-10T05:36:48;100488.44;;;24.93;37.00
78839;BME280;68405;47.190;27.558;2023-05-10T05:39:17;100487.77;;;25.30;34.83
78839;BME280;68405;47.190;27.558;2023-05-10T05:41:45;100489.34;;;25.26;33.89
78839;BME280;68405;47.190;27.558;2023-05-10T05:44:15;100489.37;;;25.20;34.47
78839;BME280;68405;47.190;27.558;2023-05-10T05:46:43;100491.86;;;25.47;34.82
78839;BME280;68405;47.190;27.558;2023-05-10T05:49:13;100493.40;;;25.82;33.58
78839;BME280;68405;47.190;27.558;2023-05-10T05:51:42;100492.11;;;26.73;30.63
78839;BME280;68405;47.190;27.558;2023-05-10T05:54:11;100494.04;;;27.70;28.90
78839;BME280;68405;47.190;27.558;2023-05-10T05:56:39;100495.17;;;27.86;29.93
78839;BME280;68405;47.190;27.558;2023-05-10T05:59:08;100492.84;;;28.68;30.31
78839;BME280;68405;47.190;27.558;2023-05-10T06:01:37;100493.61;;;29.51;26.09
78839;BME280;68405;47.190;27.558;2023-05-10T06:04:06;100494.19;;;30.49;22.53
78839;BME280;68405;47.190;27.558;2023-05-10T06:06:35;100495.15;;;30.71;22.08
78839;BME280;68405;47.190;27.558;2023-05-10T06:09:04;100495.57;;;32.22;20.76
78839;BME280;68405;47.190;27.558;2023-05-10T06:11:34;100495.52;;;33.45;22.24
78839;BME280;68405;47.190;27.558;2023-05-10T06:14:03;100500.34;;;33.07;23.25
78839;BME280;68405;47.190;27.558;2023-05-10T06:16:35;100496.14;;;33.85;20.93
78839;BME280;68405;47.190;27.558;2023-05-10T06:19:04;100499.52;;;33.78;23.27
78839;BME280;68405;47.190;27.558;2023-05-10T06:21:33;100499.50;;;33.76;21.18
78839;BME280;68405;47.190;27.558;2023-05-10T06:24:02;100500.58;;;33.18;23.92
78839;BME280;68405;47.190;27.558;2023-05-10T06:26:31;100498.16;;;32.81;21.71
78839;BME280;68405;47.190;27.558;2023-05-10T06:28:59;100493.81;;;33.33;21.96
78839;BME280;68405;47.190;27.558;2023-05-10T06:31:29;100490.19;;;33.80;20.88
78839;BME280;68405;47.190;27.558;2023-05-10T06:33:58;100492.14;;;33.21;19.66
78839;BME280;68405;47.190;27.558;2023-05-10T06:36:26;100492.23;;;33.81;22.36
78839;BME280;68405;47.190;27.558;2023-05-10T06:38:55;100493.24;;;34.54;21.06
78839;BME280;68405;47.190;27.558;2023-05-10T06:41:24;100490.51;;;33.83;20.03
78839;BME280;68405;47.190;27.558;2023-05-10T06:43:53;100491.16;;;33.93;19.88
78839;BME280;68405;47.190;27.558;2023-05-10T06:46:22;100489.44;;;34.02;17.41
78839;BME280;68405;47.190;27.558;2023-05-10T06:48:50;100492.41;;;34.05;19.02
78839;BME280;68405;47.190;27.558;2023-05-10T06:51:20;100495.42;;;33.59;20.19
78839;BME280;68405;47.190;27.558;2023-05-10T06:53:49;100488.16;;;33.85;18.98
78839;BME280;68405;47.190;27.558;2023-05-10T06:56:21;100490.89;;;34.43;21.77
78839;BME280;68405;47.190;27.558;2023-05-10T06:58:51;100490.10;;;34.68;16.03
78839;BME280;68405;47.190;27.558;2023-05-10T07:01:20;100493.77;;;34.78;15.47
78839;BME280;68405;47.190;27.558;2023-05-10T07:03:49;100492.89;;;34.42;15.97
78839;BME280;68405;47.190;27.558;2023-05-10T07:06:18;100492.22;;;34.10;15.33
78839;BME280;68405;47.190;27.558;2023-05-10T07:08:47;100492.63;;;34.62;15.08
78839;BME280;68405;47.190;27.558;2023-05-10T07:11:16;100498.45;;;35.86;16.09
78839;BME280;68405;47.190;27.558;2023-05-10T07:13:44;100498.89;;;35.80;13.79
78839;BME280;68405;47.190;27.558;2023-05-10T07:16:14;100497.08;;;36.28;14.01
78839;BME280;68405;47.190;27.558;2023-05-10T07:18:43;100502.63;;;36.38;13.18
78839;BME280;68405;47.190;27.558;2023-05-10T07:21:11;100499.13;;;37.36;15.09
78839;BME280;68405;47.190;27.558;2023-05-10T07:23:40;100497.09;;;38.24;15.76
78839;BME280;68405;47.190;27.558;2023-05-10T07:26:09;100499.27;;;38.76;13.50
78839;BME280;68405;47.190;27.558;2023-05-10T07:28:38;100495.82;;;38.47;12.76
78839;BME280;68405;47.190;27.558;2023-05-10T07:31:07;100497.20;;;37.55;11.95
78839;BME280;68405;47.190;27.558;2023-05-10T07:33:35;100495.09;;;37.06;12.13
78839;BME280;68405;47.190;27.558;2023-05-10T07:36:04;100488.39;;;37.43;13.34
78839;BME280;68405;47.190;27.558;2023-05-10T07:38:33;100490.86;;;38.26;15.09
78839;BME280;68405;47.190;27.558;2023-05-10T07:41:02;100490.84;;;38.30;11.35
78839;BME280;68405;47.190;27.558;2023-05-10T07:43:31;100490.56;;;37.46;10.72
78839;BME280;68405;47.190;27.558;2023-05-10T07:46:00;100490.52;;;37.66;11.95
78839;BME280;68405;47.190;27.558;2023-05-10T07:48:29;100494.23;;;38.77;12.66
78839;BME280;68405;47.190;27.558;2023-05-10T07:50:58;100487.71;;;38.32;11.74
78839;BME280;68405;47.190;27.558;2023-05-10T07:53:27;100483.43;;;37.66;12.24
78839;BME280;68405;47.190;27.558;2023-05-10T07:55:58;100482.87;;;37.99;12.93
78839;BME280;68405;47.190;27.558;2023-05-10T07:58:27;100479.99;;;37.95;9.82
78839;BME280;68405;47.190;27.558;2023-05-10T08:00:56;100485.19;;;37.25;10.74
78839;BME280;68405;47.190;27.558;2023-05-10T08:03:25;100484.80;;;37.02;11.52
78839;BME280;68405;47.190;27.558;2023-05-10T08:05:54;100490.26;;;37.49;11.47
78839;BME280;68405;47.190;27.558;2023-05-10T08:08:23;100493.24;;;37.44;12.51
78839;BME280;68405;47.190;27.558;2023-05-10T08:10:52;100490.64;;;37.23;11.33
78839;BME280;68405;47.190;27.558;2023-05-10T08:13:21;100483.16;;;37.55;13.36
78839;BME280;68405;47.190;27.558;2023-05-10T08:15:50;100481.07;;;37.42;10.92
78839;BME280;68405;47.190;27.558;2023-05-10T08:18:21;100479.98;;;37.19;11.83
78839;BME280;68405;47.190;27.558;2023-05-10T08:20:49;100472.55;;;37.05;11.83
78839;BME280;68405;47.190;27.558;2023-05-10T08:23:18;100473.63;;;36.99;11.63
78839;BME280;68405;47.190;27.558;2023-05-10T08:25:47;100481.00;;;36.34;12.00
78839;BME280;68405;47.190;27.558;2023-05-10T08:28:16;100471.13;;;36.00;11.24
78839;BME280;68405;47.190;27.558;2023-05-10T08:30:45;100475.34;;;36.57;11.94
78839;BME280;68405;47.190;27.558;2023-05-10T08:33:14;100471.92;;;37.26;13.35
78839;BME280;68405;47.190;27.558;2023-05-10T08:35:42;100471.50;;;37.29;10.94
78839;BME280;68405;47.190;27.558;2023-05-10T08:38:11;100476.74;;;36.16;13.92
78839;BME280;68405;47.190;27.558;2023-05-10T08:40:42;100468.15;;;35.19;12.23
78839;BME280;68405;47.190;27.558;2023-05-10T08:43:13;100468.55;;;35.42;10.73
78839;BME280;68405;47.190;27.558;2023-05-10T08:45:44;100466.67;;;35.49;11.05
78839;BME280;68405;47.190;27.558;2023-05-10T08:48:16;100470.27;;;35.12;12.04
78839;BME280;68405;47.190;27.558;2023-05-10T08:50:45;100468.70;;;34.40;11.00
78839;BME280;68405;47.190;27.558;2023-05-10T08:53:17;100463.03;;;34.35;10.25
78839;BME280;68405;47.190;27.558;2023-05-10T08:55:48;100464.84;;;33.40;12.72
78839;BME280;68405;47.190;27.558;2023-05-10T08:58:17;100470.19;;;32.16;13.77
78839;BME280;68405;47.190;27.558;2023-05-10T09:00:48;100462.07;;;31.18;13.81
78839;BME280;68405;47.190;27.558;2023-05-10T09:03:17;100457.38;;;30.02;13.02
78839;BME280;68405;47.190;27.558;2023-05-10T09:05:47;100460.05;;;29.10;14.86
78839;BME280;68405;47.190;27.558;2023-05-10T09:08:16;100453.55;;;28.41;15.31
78839;BME280;68405;47.190;27.558;2023-05-10T09:10:46;100457.25;;;27.83;17.10
78839;BME280;68405;47.190;27.558;2023-05-10T09:13:17;100461.20;;;26.93;15.31
78839;BME280;68405;47.190;27.558;2023-05-10T09:15:48;100456.69;;;25.96;15.63
78839;BME280;68405;47.190;27.558;2023-05-10T09:18:17;100455.52;;;25.18;15.75
78839;BME280;68405;47.190;27.558;2023-05-10T09:20:46;100460.39;;;24.86;15.73
78839;BME280;68405;47.190;27.558;2023-05-10T09:23:15;100457.80;;;26.00;15.55
78839;BME280;68405;47.190;27.558;2023-05-10T09:25:44;100459.89;;;26.61;14.58
78839;BME280;68405;47.190;27.558;2023-05-10T09:28:13;100458.40;;;27.98;15.30
78839;BME280;68405;47.190;27.558;2023-05-10T09:30:42;100454.15;;;29.69;14.09
78839;BME280;68405;47.190;27.558;2023-05-10T09:33:11;100458.73;;;30.18;13.52
78839;BME280;68405;47.190;27.558;2023-05-10T09:35:40;100454.73;;;29.55;14.79
78839;BME280;68405;47.190;27.558;2023-05-10T09:38:10;100452.96;;;28.94;16.21
78839;BME280;68405;47.190;27.558;2023-05-10T09:40:39;100454.55;;;28.29;16.12
78839;BME280;68405;47.190;27.558;2023-05-10T09:43:09;100451.66;;;27.98;16.49
78839;BME280;68405;47.190;27.558;2023-05-10T09:45:39;100449.95;;;27.70;16.36
78839;BME280;68405;47.190;27.558;2023-05-10T09:48:10;100449.47;;;26.98;17.46
78839;BME280;68405;47.190;27.558;2023-05-10T09:50:39;100446.12;;;26.46;19.03
78839;BME280;68405;47.190;27.558;2023-05-10T09:53:08;100444.42;;;25.88;18.81
78839;BME280;68405;47.190;27.558;2023-05-10T09:55:42;100445.23;;;25.26;19.20
78839;BME280;68405;47.190;27.558;2023-05-10T09:58:13;100444.89;;;24.74;19.85
78839;BME280;68405;47.190;27.558;2023-05-10T10:00:44;100443.00;;;24.41;20.05
78839;BME280;68405;47.190;27.558;2023-05-10T10:03:15;100442.21;;;24.21;20.86
78839;BME280;68405;47.190;27.558;2023-05-10T10:05:45;100443.36;;;23.85;20.09
78839;BME280;68405;47.190;27.558;2023-05-10T10:08:17;100442.52;;;23.42;21.19
78839;BME280;68405;47.190;27.558;2023-05-10T10:10:47;100443.11;;;23.02;21.09
78839;BME280;68405;47.190;27.558;2023-05-10T10:13:16;100442.08;;;22.77;21.87
78839;BME280;68405;47.190;27.558;2023-05-10T10:15:46;100445.77;;;22.61;21.14
78839;BME280;68405;47.190;27.558;2023-05-10T10:18:18;100444.25;;;22.67;22.02
78839;BME280;68405;47.190;27.558;2023-05-10T10:20:52;100439.41;;;22.70;21.39
78839;BME280;68405;47.190;27.558;2023-05-10T10:23:21;100441.57;;;22.83;21.85
78839;BME280;68405;47.190;27.558;2023-05-10T10:25:51;100444.97;;;22.92;21.96
78839;BME280;68405;47.190;27.558;2023-05-10T10:28:26;100447.23;;;23.18;21.34
78839;BME280;68405;47.190;27.558;2023-05-10T10:31:13;100444.43;;;23.47;20.68
78839;BME280;68405;47.190;27.558;2023-05-10T10:34:01;100446.09;;;23.95;20.30
78839;BME280;68405;47.190;27.558;2023-05-10T10:36:32;100439.84;;;24.62;20.13
78839;BME280;68405;47.190;27.558;2023-05-10T10:39:07;100440.77;;;26.15;17.92
78839;BME280;68405;47.190;27.558;2023-05-10T10:41:39;100436.09;;;27.62;16.79
78839;BME280;68405;47.190;27.558;2023-05-10T10:44:36;100433.59;;;28.80;16.45
78839;BME280;68405;47.190;27.558;2023-05-10T10:47:10;100434.95;;;29.57;16.05
78839;BME280;68405;47.190;27.558;2023-05-10T10:50:04;100430.34;;;28.70;16.16
78839;BME280;68405;47.190;27.558;2023-05-10T10:52:34;100428.09;;;28.54;16.46
78839;BME280;68405;47.190;27.558;2023-05-10T10:55:06;100427.31;;;29.30;15.68
78839;BME280;68405;47.190;27.558;2023-05-10T10:57:45;100431.89;;;30.28;15.89
78839;BME280;68405;47.190;27.558;2023-05-10T11:00:36;100431.84;;;30.82;15.80
78839;BME280;68405;47.190;27.558;2023-05-10T11:03:08;100424.73;;;30.13;14.15
78839;BME280;68405;47.190;27.558;2023-05-10T11:05:43;100423.13;;;28.76;14.33
78839;BME280;68405;47.190;27.558;2023-05-10T11:08:15;100420.09;;;27.82;14.75
78839;BME280;68405;47.190;27.558;2023-05-10T11:10:52;100422.25;;;27.58;16.84
78839;BME280;68405;47.190;27.558;2023-05-10T11:13:29;100422.56;;;27.53;16.08
78839;BME280;68405;47.190;27.558;2023-05-10T11:15:59;100421.20;;;26.99;17.33
78839;BME280;68405;47.190;27.558;2023-05-10T11:18:38;100420.52;;;26.20;17.13
78839;BME280;68405;47.190;27.558;2023-05-10T11:21:09;100423.19;;;25.75;17.92
78839;BME280;68405;47.190;27.558;2023-05-10T11:23:55;100418.88;;;25.45;18.54
78839;BME280;68405;47.190;27.558;2023-05-10T11:26:23;100421.55;;;25.39;18.30
78839;BME280;68405;47.190;27.558;2023-05-10T11:28:54;100417.67;;;25.12;18.18
78839;BME280;68405;47.190;27.558;2023-05-10T11:31:24;100418.94;;;25.06;18.41
78839;BME280;68405;47.190;27.558;2023-05-10T11:33:55;100419.77;;;25.17;18.48
78839;BME280;68405;47.190;27.558;2023-05-10T11:36:26;100418.31;;;25.04;17.15
78839;BME280;68405;47.190;27.558;2023-05-10T11:38:56;100413.59;;;24.77;16.88
78839;BME280;68405;47.190;27.558;2023-05-10T11:41:26;100412.82;;;24.94;17.20
78839;BME280;68405;47.190;27.558;2023-05-10T11:43:56;100412.07;;;25.03;19.26
78839;BME280;68405;47.190;27.558;2023-05-10T11:46:27;100412.70;;;24.99;19.84
78839;BME280;68405;47.190;27.558;2023-05-10T11:48:58;100410.65;;;24.98;18.55
78839;BME280;68405;47.190;27.558;2023-05-10T11:51:32;100412.44;;;24.76;19.11
78839;BME280;68405;47.190;27.558;2023-05-10T11:54:05;100409.38;;;24.48;18.00
78839;BME280;68405;47.190;27.558;2023-05-10T11:56:34;100411.97;;;24.22;16.30
78839;BME280;68405;47.190;27.558;2023-05-10T11:59:03;100411.73;;;24.24;15.79
78839;BME280;68405;47.190;27.558;2023-05-10T12:01:32;100409.52;;;24.00;15.84
78839;BME280;68405;47.190;27.558;2023-05-10T12:04:01;100409.95;;;23.99;16.87
78839;BME280;68405;47.190;27.558;2023-05-10T12:06:31;100404.42;;;24.67;16.25
78839;BME280;68405;47.190;27.558;2023-05-10T12:09:07;100407.90;;;25.30;16.85
78839;BME280;68405;47.190;27.558;2023-05-10T12:11:39;100404.04;;;24.95;18.29
78839;BME280;68405;47.190;27.558;2023-05-10T12:14:09;100407.12;;;24.41;19.23
78839;BME280;68405;47.190;27.558;2023-05-10T12:16:38;100406.73;;;23.90;19.47
78839;BME280;68405;47.190;27.558;2023-05-10T12:19:07;100402.17;;;23.90;19.79
78839;BME280;68405;47.190;27.558;2023-05-10T12:21:36;100402.11;;;23.79;20.09
78839;BME280;68405;47.190;27.558;2023-05-10T12:24:06;100396.36;;;23.65;20.13
78839;BME280;68405;47.190;27.558;2023-05-10T12:26:36;100393.11;;;23.44;19.86
78839;BME280;68405;47.190;27.558;2023-05-10T12:29:15;100393.06;;;23.29;19.80
78839;BME280;68405;47.190;27.558;2023-05-10T12:31:55;100394.10;;;23.60;18.83
78839;BME280;68405;47.190;27.558;2023-05-10T12:34:24;100392.33;;;23.66;19.22
78839;BME280;68405;47.190;27.558;2023-05-10T12:36:54;100395.14;;;23.56;19.17
78839;BME280;68405;47.190;27.558;2023-05-10T12:39:23;100392.27;;;23.76;18.98
78839;BME280;68405;47.190;27.558;2023-05-10T12:41:52;100388.05;;;24.08;19.50
78839;BME280;68405;47.190;27.558;2023-05-10T12:44:21;100386.70;;;24.31;19.65
78839;BME280;68405;47.190;27.558;2023-05-10T12:46:50;100382.77;;;24.67;19.18
78839;BME280;68405;47.190;27.558;2023-05-10T12:49:19;100378.70;;;24.88;18.40
78839;BME280;68405;47.190;27.558;2023-05-10T12:51:48;100377.17;;;25.20;17.92
78839;BME280;68405;47.190;27.558;2023-05-10T12:54:17;100376.07;;;24.96;17.73
78839;BME280;68405;47.190;27.558;2023-05-10T12:56:46;100372.70;;;24.35;17.67
78839;BME280;68405;47.190;27.558;2023-05-10T12:59:15;100370.52;;;24.44;18.39
78839;BME280;68405;47.190;27.558;2023-05-10T13:01:44;100366.99;;;24.16;18.12
78839;BME280;68405;47.190;27.558;2023-05-10T13:04:13;100367.96;;;24.30;18.70
78839;BME280;68405;47.190;27.558;2023-05-10T13:06:42;100362.43;;;24.52;18.66
78839;BME280;68405;47.190;27.558;2023-05-10T13:09:10;100364.53;;;24.10;17.93
78839;BME280;68405;47.190;27.558;2023-05-10T13:11:39;100363.55;;;23.41;18.17
78839;BME280;68405;47.190;27.558;2023-05-10T13:14:08;100363.28;;;23.20;19.63
78839;BME280;68405;47.190;27.558;2023-05-10T13:16:37;100361.83;;;23.06;19.51
78839;BME280;68405;47.190;27.558;2023-05-10T13:19:05;100360.16;;;22.89;19.79
78839;BME280;68405;47.190;27.558;2023-05-10T13:21:34;100362.20;;;22.95;20.26
78839;BME280;68405;47.190;27.558;2023-05-10T13:24:04;100358.94;;;22.96;20.22
78839;BME280;68405;47.190;27.558;2023-05-10T13:26:33;100353.25;;;22.91;20.72
78839;BME280;68405;47.190;27.558;2023-05-10T13:29:02;100359.80;;;22.82;20.83
78839;BME280;68405;47.190;27.558;2023-05-10T13:31:31;100352.80;;;22.68;21.34
78839;BME280;68405;47.190;27.558;2023-05-10T13:34:00;100350.20;;;22.37;20.59